Aviation

Metar/Speci

station

VRMH

METAR VRMH 252000Z 28013KT 9999 FEW018TCU BKN120 27/25 Q1008=

50 minutes ago

VRMM

METAR VRMM 252000Z 27017KT 9999 SCT018TCU BKN280 29/26 Q1008 TEMPO 28022G35KT 4000 SHRA=

48 minutes ago

VRMK

METAR VRMK 252000Z 25010KT 9999 FEW018TCU BKN130 28/26 Q1009=

52 minutes ago

VRMT

METAR VRMT 252000Z 27009KT 9999 SCT018TCU BKN260 29/25 Q1009=

51 minutes ago

VRMG

METAR VRMG 252000Z 24009KT 9999 SCT017 FEW018CB BKN250 27/25 Q1009 CB N,S TEMPO 5000 SHRA=

52 minutes ago

Synop

station

43533

AAXX 25184 43533 12462 52910 10282 20259 30098 40100 60001 82232 333 59016 82818 84077=

2 hours ago

43555

AAXX 25184 43555 12465 72717 10286 20251 30100 40102 60001 8223/ 333 59019 82818 87363=

2 hours ago

43577

AAXX 25184 43577 11460 72507 10286 20258 30106 40108 69901 78082 83232 333 59011 83818 87363=

2 hours ago

43588

AAXX 25184 43588 12462 72708 10285 20254 30109 40110 60001 83938 333 59002 82818 81919 84362 87276=

2 hours ago

43599

AAXX 25184 43599 12460 72710 10280 20253 30108 40110 60001 82238 333 58001 82818 87275=

2 hours ago

Tafs

station

VRMH

VRMH 251700Z 2518/2624 29012KT 9999 FEW017TCU TEMPO 2518/2524 27016G32KT 4000 TSRA SCT017CB=

3 hours ago

VRMM

VRMM 251700Z 2518/2624 28016KT 9999 FEW017TCU TEMPO 2518/2524 27016G38KT 4000 TSRA SCT016CB=

2 hours ago

VRMK

VRMK 251700Z 2518/2518 25010KT 9999 FEW017TCU BKN110 TEMPO 2518/2524 5000 TSRA FEW017CB=

3 hours ago

VRMT

VRMT 251100Z 2518/2518 24010KT 9999 FEW017TCU BKN100 TEMPO 2518/2524 5000 SHRA FEW017CB=

3 hours ago

VRMG

VRMG 251700Z 2518/2624 27012KT 9999 FEW017TCU BKN100 TEMPO 2518/2524 5000 SHRA FEW017CB=

3 hours ago

Sigmet

Flight folders

No flight folder available at the moment.